createdAt,value
2017-04-28T00:00:57.941Z,4.86
2017-04-28T00:03:26.549Z,4.72
2017-04-28T00:05:55.534Z,4.96
2017-04-28T00:08:23.780Z,5.32
2017-04-28T00:10:52.390Z,5.56
2017-04-28T00:13:21.368Z,5.54
2017-04-28T00:15:50.016Z,5.60
2017-04-28T00:18:18.624Z,4.74
2017-04-28T00:20:47.237Z,5.56
2017-04-28T00:23:16.267Z,5.24
2017-04-28T00:25:44.868Z,4.98
2017-04-28T00:28:13.471Z,5.30
2017-04-28T00:30:42.119Z,5.30
2017-04-28T00:33:10.731Z,4.78
2017-04-28T00:35:39.329Z,5.22
2017-04-28T00:38:08.357Z,5.58
2017-04-28T00:40:36.568Z,5.70
2017-04-28T00:43:05.181Z,4.82
2017-04-28T00:45:34.343Z,5.32
2017-04-28T00:48:02.957Z,5.54
2017-04-28T00:50:31.936Z,5.98
2017-04-28T00:53:00.938Z,5.82
2017-04-28T00:55:29.916Z,6.56
2017-04-28T00:57:58.132Z,6.50
2017-04-28T01:00:27.118Z,6.60
2017-04-28T01:02:55.728Z,7.28
2017-04-28T01:05:24.340Z,6.62
2017-04-28T01:07:53.186Z,7.34
2017-04-28T01:10:21.800Z,5.84
2017-04-28T01:12:50.402Z,6.12
2017-04-28T01:15:19.293Z,6.80
2017-04-28T01:17:48.273Z,5.82
2017-04-28T01:20:16.884Z,6.98
2017-04-28T01:22:45.105Z,6.28
2017-04-28T01:25:13.717Z,6.38
2017-04-28T01:27:41.926Z,6.48
2017-04-28T01:30:10.864Z,7.08
2017-04-28T01:32:39.078Z,6.70
2017-04-28T01:35:07.295Z,6.38
2017-04-28T01:37:35.709Z,6.62
2017-04-28T01:40:04.698Z,6.76
2017-04-28T01:42:32.920Z,6.38
2017-04-28T01:45:01.648Z,6.58
2017-04-28T01:47:29.870Z,7.04
2017-04-28T01:49:58.485Z,6.82
2017-04-28T01:52:27.289Z,6.86
2017-04-28T01:54:55.495Z,6.40
2017-04-28T01:57:24.105Z,7.42
2017-04-28T01:59:53.020Z,7.64
2017-04-28T02:02:21.627Z,6.88
2017-04-28T02:04:50.599Z,7.32
2017-04-28T02:07:19.597Z,7.48
2017-04-28T02:09:48.213Z,7.52
2017-04-28T02:12:16.821Z,7.14
2017-04-28T02:14:45.636Z,7.44
2017-04-28T02:17:14.254Z,7.10
2017-04-28T02:19:43.112Z,6.66
2017-04-28T02:22:12.012Z,7.40
2017-04-28T02:24:41.001Z,7.06
2017-04-28T02:27:09.608Z,7.72
2017-04-28T02:29:38.512Z,8.16
2017-04-28T02:32:06.728Z,7.10
2017-04-28T02:34:35.333Z,7.32
2017-04-28T02:37:04.362Z,8.08
2017-04-28T02:39:32.577Z,7.40
2017-04-28T02:42:01.193Z,8.98
2017-04-28T02:44:29.841Z,8.22
2017-04-28T02:46:58.453Z,7.00
2017-04-28T02:49:26.668Z,8.42
2017-04-28T02:51:55.293Z,8.42
2017-04-28T02:54:24.274Z,7.58
2017-04-28T02:56:53.027Z,7.82
2017-04-28T02:59:21.637Z,8.02
2017-04-28T03:01:50.241Z,8.24
2017-04-28T03:04:18.854Z,8.94
2017-04-28T03:06:47.383Z,8.28
2017-04-28T03:09:15.598Z,8.16
2017-04-28T03:11:44.213Z,9.20
2017-04-28T03:14:12.857Z,9.14
2017-04-28T03:16:41.068Z,9.04
2017-04-28T03:19:09.717Z,8.92
2017-04-28T03:21:38.574Z,8.70
2017-04-28T03:24:07.214Z,8.28
2017-04-28T03:26:35.855Z,8.24
2017-04-28T03:29:04.905Z,8.58
2017-04-28T03:31:33.542Z,9.66
2017-04-28T03:34:02.550Z,7.96
2017-04-28T03:36:31.218Z,8.56
2017-04-28T03:39:00.225Z,8.54
2017-04-28T03:41:28.870Z,8.64
2017-04-28T03:43:57.142Z,9.44
2017-04-28T03:46:25.778Z,9.12
2017-04-28T03:48:54.418Z,9.10
2017-04-28T03:51:23.176Z,8.00
2017-04-28T03:53:51.814Z,7.84
2017-04-28T03:56:20.457Z,8.74
2017-04-28T03:58:49.482Z,9.38
2017-04-28T04:01:18.118Z,8.64
2017-04-28T04:03:46.762Z,8.76
2017-04-28T04:06:15.439Z,8.94
2017-04-28T04:08:44.070Z,10.24
2017-04-28T04:11:12.710Z,9.00
2017-04-28T04:13:41.370Z,8.12
2017-04-28T04:16:10.374Z,9.12
2017-04-28T04:18:39.014Z,8.54
2017-04-28T04:21:07.677Z,10.26
2017-04-28T04:23:36.458Z,9.44
2017-04-28T04:26:05.099Z,10.08
2017-04-28T04:28:34.138Z,9.82
2017-04-28T04:31:02.773Z,10.28
2017-04-28T04:33:31.419Z,9.38
2017-04-28T04:36:00.444Z,10.66
2017-04-28T04:38:29.458Z,9.82
2017-04-28T04:40:58.101Z,9.10
2017-04-28T04:43:26.762Z,9.50
2017-04-28T04:45:55.394Z,9.20
2017-04-28T04:48:24.038Z,8.66
2017-04-28T04:50:52.956Z,9.44
2017-04-28T04:53:21.963Z,8.50
2017-04-28T04:55:50.613Z,8.70
2017-04-28T04:58:19.470Z,8.34
2017-04-28T05:00:48.106Z,8.98
2017-04-28T05:03:17.113Z,9.16
2017-04-28T05:05:45.877Z,8.70
2017-04-28T05:08:15.222Z,9.20
2017-04-28T05:10:43.834Z,8.56
2017-04-28T05:13:12.857Z,9.10
2017-04-28T05:15:41.861Z,9.58
2017-04-28T05:18:10.107Z,10.56
2017-04-28T05:20:39.151Z,9.62
2017-04-28T05:23:07.793Z,10.44
2017-04-28T05:25:37.040Z,10.16
2017-04-28T05:28:05.982Z,8.72
2017-04-28T05:30:34.234Z,9.84
2017-04-28T05:33:04.594Z,8.74
2017-04-28T05:35:33.068Z,8.82
2017-04-28T05:38:01.310Z,9.78
2017-04-28T05:40:29.954Z,9.70
2017-04-28T05:42:58.619Z,9.70
2017-04-28T05:45:27.262Z,9.66
2017-04-28T05:47:55.915Z,10.28
2017-04-28T05:50:24.841Z,9.02
2017-04-28T05:52:53.857Z,9.94
2017-04-28T05:55:22.493Z,9.70
2017-04-28T05:57:51.522Z,9.38
2017-04-28T06:00:20.538Z,10.26
2017-04-28T06:02:49.181Z,11.66
2017-04-28T06:05:17.877Z,11.34
2017-04-28T06:07:46.127Z,9.96
2017-04-28T06:10:14.773Z,11.46
2017-04-28T06:12:43.442Z,10.98
2017-04-28T06:15:12.125Z,11.52
2017-04-28T06:17:40.371Z,11.50
2017-04-28T06:20:09.608Z,12.32
2017-04-28T06:22:38.238Z,12.52
2017-04-28T06:25:06.490Z,11.54
2017-04-28T06:27:35.530Z,12.56
2017-04-28T06:30:04.182Z,11.84
2017-04-28T06:32:33.434Z,12.88
2017-04-28T06:35:02.193Z,13.18
2017-04-28T06:37:30.832Z,14.14
2017-04-28T06:39:59.469Z,13.10
2017-04-28T06:42:27.740Z,12.64
2017-04-28T06:44:56.386Z,11.02
2017-04-28T06:47:24.639Z,13.36
2017-04-28T06:49:53.578Z,13.56
2017-04-28T06:52:22.832Z,13.80
2017-04-28T06:54:51.475Z,13.78
2017-04-28T06:57:20.465Z,13.44
2017-04-28T06:59:49.110Z,14.10
2017-04-28T07:02:18.614Z,15.36
2017-04-28T07:04:47.297Z,12.96
2017-04-28T07:07:15.941Z,14.02
2017-04-28T07:09:44.578Z,13.56
2017-04-28T07:12:14.190Z,15.12
2017-04-28T07:14:42.435Z,15.38
2017-04-28T07:17:11.101Z,16.60
2017-04-28T07:19:39.764Z,14.86
2017-04-28T07:22:08.024Z,13.08
2017-04-28T07:24:36.271Z,13.28
2017-04-28T07:27:05.692Z,14.58
2017-04-28T07:29:34.510Z,13.38
2017-04-28T07:32:03.153Z,15.02
2017-04-28T07:34:31.815Z,13.74
2017-04-28T07:37:00.450Z,13.66
2017-04-28T07:39:28.694Z,15.60
2017-04-28T07:41:57.582Z,16.38
2017-04-28T07:44:26.213Z,14.74
2017-04-28T07:46:54.860Z,12.76
2017-04-28T07:49:23.424Z,16.16
2017-04-28T07:51:52.425Z,15.34
2017-04-28T07:54:21.082Z,16.32
2017-04-28T07:56:50.607Z,14.90
2017-04-28T07:59:19.245Z,14.46
2017-04-28T08:01:47.492Z,14.70
2017-04-28T08:04:15.852Z,15.86
2017-04-28T08:06:44.493Z,15.06
2017-04-28T08:09:12.746Z,16.54
2017-04-28T08:11:41.700Z,17.08
2017-04-28T08:14:10.338Z,14.74
2017-04-28T08:16:38.982Z,15.80
2017-04-28T08:19:07.756Z,16.16
2017-04-28T08:21:36.401Z,18.92
2017-04-28T08:24:04.646Z,18.70
2017-04-28T08:26:33.305Z,17.44
2017-04-28T08:29:02.229Z,17.20
2017-04-28T08:31:31.045Z,17.48
2017-04-28T08:33:59.730Z,18.70
2017-04-28T08:36:28.372Z,17.82
2017-04-28T08:38:57.031Z,19.90
2017-04-28T08:41:25.893Z,17.12
2017-04-28T08:43:54.535Z,19.36
2017-04-28T08:46:23.182Z,19.02
2017-04-28T08:48:51.935Z,20.40
2017-04-28T08:51:20.949Z,19.54
2017-04-28T08:53:49.597Z,21.76
2017-04-28T08:56:18.520Z,27.00
2017-04-28T08:58:47.158Z,29.58
2017-04-28T09:01:15.802Z,30.82
2017-04-28T09:03:44.453Z,32.06
2017-04-28T09:06:13.337Z,30.32
2017-04-28T09:08:41.994Z,33.44
2017-04-28T09:11:10.264Z,28.24
2017-04-28T09:13:38.954Z,27.86
2017-04-28T09:16:07.197Z,28.96
2017-04-28T09:18:35.849Z,24.72
2017-04-28T09:21:04.973Z,25.26
2017-04-28T09:23:34.434Z,23.26
2017-04-28T09:26:03.564Z,22.84
2017-04-28T09:28:32.411Z,23.72
2017-04-28T09:31:00.663Z,23.92
2017-04-28T09:33:29.305Z,22.00
2017-04-28T09:35:58.157Z,20.82
2017-04-28T09:38:27.169Z,20.38
2017-04-28T09:40:55.821Z,20.50
2017-04-28T09:43:25.541Z,22.68
2017-04-28T09:45:54.569Z,21.58
2017-04-28T09:48:23.198Z,20.94
2017-04-28T09:50:52.213Z,20.46
2017-04-28T09:53:20.903Z,19.20
2017-04-28T09:55:49.557Z,19.14
2017-04-28T09:58:18.584Z,20.58
2017-04-28T10:00:47.433Z,22.18
2017-04-28T10:03:16.087Z,20.58
2017-04-28T10:05:44.733Z,21.76
2017-04-28T10:08:13.008Z,22.00
2017-04-28T10:10:41.654Z,20.76
2017-04-28T10:13:10.309Z,20.28
2017-04-28T10:15:39.151Z,19.04
2017-04-28T10:18:07.399Z,18.84
2017-04-28T10:20:36.054Z,20.40
2017-04-28T10:23:04.725Z,19.18
2017-04-28T10:25:34.025Z,20.62
2017-04-28T10:28:02.271Z,20.10
2017-04-28T10:30:31.033Z,20.24
2017-04-28T10:33:00.419Z,22.20
2017-04-28T10:35:29.050Z,24.08
2017-04-28T10:37:58.017Z,23.98
2017-04-28T10:40:26.301Z,24.14
2017-04-28T10:42:55.348Z,24.86
2017-04-28T10:45:24.287Z,21.98
2017-04-28T10:47:52.930Z,22.40
2017-04-28T10:50:21.575Z,23.50
2017-04-28T10:52:50.259Z,19.42
2017-04-28T10:57:53.695Z,21.86
2017-04-28T11:00:22.340Z,18.28
2017-04-28T11:02:50.586Z,17.40
2017-04-28T11:05:19.459Z,18.68
2017-04-28T11:07:48.560Z,17.12
2017-04-28T11:10:16.797Z,17.50
2017-04-28T11:12:45.747Z,17.38
2017-04-28T11:15:14.412Z,16.70
2017-04-28T11:17:43.432Z,16.10
2017-04-28T11:20:12.259Z,16.22
2017-04-28T11:22:40.902Z,16.08
2017-04-28T11:25:11.868Z,14.18
2017-04-28T11:27:40.537Z,15.10
2017-04-28T11:30:08.786Z,14.30
2017-04-28T11:32:37.030Z,11.88
2017-04-28T11:35:05.709Z,12.24
2017-04-28T11:37:34.351Z,10.82
2017-04-28T11:40:02.608Z,12.46
2017-04-28T11:42:31.275Z,11.66
2017-04-28T11:45:00.289Z,14.00
2017-04-28T11:47:28.938Z,12.06
2017-04-28T11:49:58.241Z,12.32
2017-04-28T11:52:26.495Z,12.50
2017-04-28T11:54:55.138Z,11.80
2017-04-28T11:57:23.799Z,10.62
2017-04-28T11:59:52.460Z,9.18
2017-04-28T12:02:21.113Z,8.56
2017-04-28T12:04:50.041Z,8.76
2017-04-28T12:07:19.070Z,8.08
2017-04-28T12:09:47.720Z,7.00
2017-04-28T12:12:16.766Z,6.96
2017-04-28T12:14:45.428Z,9.10
2017-04-28T12:17:14.070Z,10.26
2017-04-28T12:19:43.373Z,9.18
2017-04-28T12:22:12.015Z,8.70
2017-04-28T12:24:40.664Z,7.56
2017-04-28T12:27:09.346Z,7.88
2017-04-28T12:29:37.983Z,8.40
2017-04-28T12:32:06.626Z,7.84
2017-04-28T12:34:35.552Z,7.20
2017-04-28T12:37:04.506Z,6.92
2017-04-28T12:39:33.152Z,6.54
2017-04-28T12:42:01.982Z,6.28
2017-04-28T12:44:30.619Z,5.60
2017-04-28T12:46:59.626Z,5.62
2017-04-28T12:49:28.461Z,6.26
2017-04-28T12:51:57.115Z,6.72
2017-04-28T12:54:25.762Z,6.86
2017-04-28T12:56:54.806Z,6.98
2017-04-28T12:59:23.456Z,7.22
2017-04-28T13:01:51.709Z,7.22
2017-04-28T13:04:21.694Z,7.48
2017-04-28T13:06:50.341Z,7.56
2017-04-28T13:09:18.586Z,8.20
2017-04-28T13:11:47.270Z,8.92
2017-04-28T13:14:15.527Z,9.12
2017-04-28T13:16:44.706Z,8.08
2017-04-28T13:19:13.545Z,9.02
2017-04-28T13:21:42.179Z,9.12
2017-04-28T13:24:10.831Z,8.52
2017-04-28T13:26:39.885Z,8.80
2017-04-28T13:29:08.540Z,9.30
2017-04-28T13:31:36.791Z,10.80
2017-04-28T13:34:05.735Z,10.14
2017-04-28T13:36:34.873Z,10.72
2017-04-28T13:39:03.533Z,9.62
2017-04-28T13:41:32.222Z,10.64
2017-04-28T13:44:00.870Z,11.52
2017-04-28T13:46:29.122Z,10.50
2017-04-28T13:48:58.151Z,10.50
2017-04-28T13:51:26.412Z,10.10
2017-04-28T13:53:55.427Z,10.86
2017-04-28T13:56:24.104Z,9.66
2017-04-28T13:58:52.763Z,8.10
2017-04-28T14:01:21.794Z,8.96
2017-04-28T14:03:50.450Z,7.98
2017-04-28T14:06:20.109Z,8.14
2017-04-28T14:08:48.372Z,8.64
2017-04-28T14:11:17.037Z,7.96
2017-04-28T14:13:45.683Z,7.90
2017-04-28T14:16:13.931Z,8.42
2017-04-28T14:18:42.901Z,8.18
2017-04-28T14:21:12.138Z,9.18
2017-04-28T14:23:41.900Z,9.50
2017-04-28T14:26:10.758Z,9.12
2017-04-28T14:28:39.768Z,8.80
2017-04-28T14:31:08.416Z,9.20
2017-04-28T14:33:36.693Z,8.26
2017-04-28T14:36:05.848Z,9.56
2017-04-28T14:38:34.577Z,9.00
2017-04-28T14:41:03.703Z,8.18
2017-04-28T14:43:32.339Z,9.52
2017-04-28T14:46:00.579Z,9.50
2017-04-28T14:48:29.194Z,8.52
2017-04-28T14:50:57.838Z,8.40
2017-04-28T14:53:26.488Z,9.20
2017-04-28T14:55:56.313Z,9.62
2017-04-28T14:58:24.946Z,11.08
2017-04-28T15:00:53.818Z,12.20
2017-04-28T15:03:22.167Z,10.98
2017-04-28T15:05:50.812Z,12.84
2017-04-28T15:08:19.852Z,13.22
2017-04-28T15:10:49.489Z,11.90
2017-04-28T15:13:18.145Z,12.56
2017-04-28T15:15:46.806Z,12.54
2017-04-28T15:18:15.653Z,11.88
2017-04-28T15:20:45.017Z,11.30
2017-04-28T15:23:13.646Z,11.24
2017-04-28T15:25:42.713Z,12.04
2017-04-28T15:28:11.353Z,12.04
2017-04-28T15:30:39.612Z,11.18
2017-04-28T15:33:08.922Z,11.70
2017-04-28T15:35:37.179Z,11.20
2017-04-28T15:38:06.203Z,11.96
2017-04-28T15:40:34.718Z,11.00
2017-04-28T15:43:03.354Z,9.86
2017-04-28T15:45:33.120Z,10.86
2017-04-28T15:48:02.059Z,11.06
2017-04-28T15:50:30.707Z,10.96
2017-04-28T15:52:59.363Z,10.94
2017-04-28T15:55:28.049Z,10.56
2017-04-28T15:57:56.685Z,10.96
2017-04-28T16:00:25.333Z,11.50
2017-04-28T16:02:54.648Z,10.12
2017-04-28T16:05:23.875Z,10.74
2017-04-28T16:07:52.525Z,11.42
2017-04-28T16:10:23.008Z,10.96
2017-04-28T16:12:52.088Z,10.74
2017-04-28T16:15:20.322Z,11.72
2017-04-28T16:17:49.374Z,13.30
2017-04-28T16:20:18.019Z,13.66
2017-04-28T16:22:46.596Z,14.46
2017-04-28T16:25:15.233Z,13.66
2017-04-28T16:27:43.897Z,14.54
2017-04-28T16:30:12.952Z,17.64
2017-04-28T16:32:41.597Z,15.12
2017-04-28T16:35:10.250Z,16.54
2017-04-28T16:37:39.255Z,15.82
2017-04-28T16:40:09.495Z,15.78
2017-04-28T16:42:38.462Z,15.26
2017-04-28T16:45:07.138Z,18.24
2017-04-28T16:47:35.793Z,17.26
2017-04-28T16:50:04.465Z,16.96
2017-04-28T16:52:33.391Z,17.24
2017-04-28T16:55:02.050Z,15.58
2017-04-28T16:57:31.032Z,7.50
2017-04-28T16:59:59.669Z,6.24
2017-04-28T17:02:28.310Z,4.78
2017-04-28T17:04:56.968Z,5.30
2017-04-28T17:07:25.972Z,5.00
2017-04-28T17:09:54.607Z,5.06
2017-04-28T17:12:23.285Z,5.16
2017-04-28T17:14:51.939Z,4.74
2017-04-28T17:17:20.581Z,4.32
2017-04-28T17:19:49.882Z,4.58
2017-04-28T17:22:18.517Z,5.40
2017-04-28T17:24:47.165Z,5.24
2017-04-28T17:27:16.430Z,5.76
2017-04-28T17:29:45.069Z,5.06
2017-04-28T17:32:14.060Z,4.72
2017-04-28T17:34:42.714Z,4.58
2017-04-28T17:37:11.361Z,4.58
2017-04-28T17:39:40.009Z,5.50
2017-04-28T17:42:08.457Z,4.84
2017-04-28T17:44:38.103Z,4.90
2017-04-28T17:47:07.289Z,4.54
2017-04-28T17:49:35.826Z,6.46
2017-04-28T17:52:05.105Z,5.14
2017-04-28T17:54:33.755Z,94.92
2017-04-28T17:57:03.426Z,67.36
2017-04-28T17:59:32.360Z,34.70
2017-04-28T18:02:01.017Z,13.10
2017-04-28T18:04:31.173Z,8.08
2017-04-28T18:07:00.921Z,6.00
2017-04-28T18:09:30.232Z,6.32
2017-04-28T18:11:58.771Z,7.22
2017-04-28T18:14:27.390Z,5.30
2017-04-28T18:16:56.416Z,6.92
2017-04-28T18:19:25.336Z,6.46
2017-04-28T18:21:53.978Z,6.38
2017-04-28T18:24:22.647Z,7.60
2017-04-28T18:26:51.692Z,7.56
2017-04-28T18:29:21.469Z,7.72
2017-04-28T18:31:50.325Z,8.80
2017-04-28T18:34:18.584Z,7.18
2017-04-28T18:36:46.822Z,8.76
2017-04-28T18:39:17.909Z,18.02
2017-04-28T18:41:46.547Z,10.08
2017-04-28T18:44:15.222Z,9.72
2017-04-28T18:46:43.901Z,11.50
2017-04-28T18:49:12.535Z,9.04
2017-04-28T18:51:41.395Z,9.14
2017-04-28T18:54:10.057Z,8.12
2017-04-28T18:56:38.702Z,8.04
2017-04-28T18:59:08.339Z,8.28
2017-04-28T19:01:36.957Z,7.86
2017-04-28T19:04:05.705Z,8.24
2017-04-28T19:06:33.960Z,7.22
2017-04-28T19:09:02.890Z,7.86
2017-04-28T19:11:31.542Z,9.08
2017-04-28T19:14:01.274Z,9.46
2017-04-28T19:16:30.928Z,11.04
2017-04-28T19:19:00.226Z,10.50
2017-04-28T19:21:29.577Z,9.26
2017-04-28T19:23:58.688Z,10.08
2017-04-28T19:26:31.644Z,7.86
2017-04-28T19:29:02.507Z,7.68
2017-04-28T19:31:31.250Z,7.92
2017-04-28T19:33:59.904Z,8.40
2017-04-28T19:36:28.906Z,7.52
2017-04-28T19:38:57.598Z,9.26
2017-04-28T19:41:26.247Z,8.86
2017-04-28T19:43:54.901Z,8.84
2017-04-28T19:46:23.569Z,8.64
2017-04-28T19:48:52.210Z,9.22
2017-04-28T19:51:21.257Z,9.94
2017-04-28T19:53:49.926Z,32.68
2017-04-28T19:56:18.170Z,35.42
2017-04-28T19:58:46.814Z,9.44
2017-04-28T20:01:15.491Z,7.24
2017-04-28T20:03:44.230Z,7.22
2017-04-28T20:06:12.870Z,6.36
2017-04-28T20:08:41.745Z,6.10
2017-04-28T20:11:10.520Z,6.38
2017-04-28T20:13:39.172Z,6.30
2017-04-28T20:16:07.832Z,5.68
2017-04-28T20:18:37.328Z,5.34
2017-04-28T20:21:06.182Z,5.20
2017-04-28T20:23:34.454Z,5.54
2017-04-28T20:26:02.714Z,7.06
2017-04-28T20:28:31.797Z,5.86
2017-04-28T20:31:00.791Z,11.10
2017-04-28T20:33:29.032Z,6.20
2017-04-28T20:35:58.033Z,5.26
2017-04-28T20:38:26.307Z,5.24
2017-04-28T20:40:55.938Z,5.26
2017-04-28T20:43:24.589Z,36.12
2017-04-28T20:45:53.773Z,37.30
2017-04-28T20:48:23.139Z,41.46
2017-04-28T20:50:52.668Z,8.76
2017-04-28T20:53:21.321Z,5.40
2017-04-28T20:55:49.579Z,5.84
2017-04-28T20:58:18.214Z,5.80
2017-04-28T21:00:46.896Z,9.44
2017-04-28T21:03:15.949Z,51.12
2017-04-28T21:05:45.589Z,21.02
2017-04-28T21:08:14.520Z,7.78
2017-04-28T21:10:43.189Z,5.38
2017-04-28T21:13:12.203Z,6.36
2017-04-28T21:15:40.970Z,5.54
2017-04-28T21:18:09.221Z,6.50
2017-04-28T21:20:37.869Z,6.46
2017-04-28T21:23:06.712Z,6.34
2017-04-28T21:25:35.361Z,33.94
2017-04-28T21:28:04.169Z,23.66
2017-04-28T21:30:33.492Z,7.34
2017-04-28T21:33:02.134Z,5.92
2017-04-28T21:35:30.758Z,4.74
2017-04-28T21:37:59.426Z,5.00
2017-04-28T21:40:27.955Z,6.12
2017-04-28T21:42:56.586Z,5.00
2017-04-28T21:45:25.674Z,6.76
2017-04-28T21:47:54.689Z,5.20
2017-04-28T21:50:22.929Z,4.74
2017-04-28T21:52:51.647Z,5.94
2017-04-28T21:55:20.282Z,5.84
2017-04-28T21:57:48.923Z,5.60
2017-04-28T22:00:17.790Z,5.90
2017-04-28T22:02:46.700Z,5.38
2017-04-28T22:05:15.001Z,5.70
2017-04-28T22:07:44.531Z,12.78
2017-04-28T22:10:13.490Z,44.48
2017-04-28T22:12:42.215Z,13.38
2017-04-28T22:15:17.218Z,6.26
2017-04-28T22:17:45.855Z,5.74
2017-04-28T22:20:14.093Z,7.36
2017-04-28T22:22:43.504Z,5.28
2017-04-28T22:25:11.751Z,4.92
2017-04-28T22:27:40.383Z,5.50
2017-04-28T22:30:09.508Z,5.20
2017-04-28T22:32:37.741Z,5.76
2017-04-28T22:35:06.750Z,6.12
2017-04-28T22:37:35.425Z,4.82
2017-04-28T22:40:04.109Z,5.36
2017-04-28T22:42:33.154Z,4.96
2017-04-28T22:45:01.797Z,5.06
2017-04-28T22:47:30.429Z,5.34
2017-04-28T22:49:59.071Z,6.14
2017-04-28T22:52:27.722Z,4.80
2017-04-28T22:54:56.725Z,4.90
2017-04-28T22:57:24.983Z,4.94
2017-04-28T22:59:54.021Z,4.82
2017-04-28T23:02:22.874Z,4.50
2017-04-28T23:04:51.874Z,5.58
2017-04-28T23:07:20.546Z,4.96
2017-04-28T23:09:49.194Z,5.82
2017-04-28T23:12:17.831Z,5.92
2017-04-28T23:14:46.283Z,6.34
2017-04-28T23:17:14.521Z,5.42
2017-04-28T23:19:43.662Z,4.94
2017-04-28T23:22:12.313Z,5.48
2017-04-28T23:24:40.945Z,5.20
2017-04-28T23:27:09.577Z,4.54
2017-04-28T23:29:38.258Z,6.58
2017-04-28T23:32:07.039Z,8.14
2017-04-28T23:34:35.292Z,6.72
2017-04-28T23:37:03.958Z,6.47
2017-04-28T23:39:32.201Z,7.20
2017-04-28T23:42:01.214Z,8.88
2017-04-28T23:44:29.877Z,7.00
2017-04-28T23:46:58.917Z,8.10
2017-04-28T23:49:28.655Z,8.72
2017-04-28T23:51:57.494Z,9.18
2017-04-28T23:54:26.130Z,8.35
2017-04-28T23:56:55.176Z,8.82
2017-04-28T23:59:24.083Z,10.65
